Cartoogechaye, North Carolina
Current Conditions -  °F | °C
As of 8:35 PM on Wednesday 22 Oct 2014 (Local Time) from KRHP Reporting Station
Clear Clear  
Wind Chill: 10°   Ceiling: Unl
Heat Index: 10°   Visibility: 10mi
Dew Point:   Wind: 8mph
Humidity: 64%   Direction: 50°NE
Pressure: 30.15"   Gusts: NA
Location:  35.1737°N, 83.4215°W
Report Text: KRHP 230035Z AUTO 05007KT 10SM CLR 10/04 A3015 RMK AO2 T01010035
Loading
Personal Weather Stations






























Interactive Weather Map
Tropical Storm Tracking
New forecast layout! Learn more

10-Day Weather Forecast

Advertisements
Track Severe Weather on mobile